createdAt,value
2023-05-21T00:01:11.687Z,11.27
2023-05-21T00:03:42.948Z,13.30
2023-05-21T00:06:16.710Z,12.57
2023-05-21T00:08:44.159Z,12.90
2023-05-21T00:11:13.210Z,13.07
2023-05-21T00:13:44.178Z,12.00
2023-05-21T00:16:11.861Z,9.65
2023-05-21T00:18:39.952Z,10.82
2023-05-21T00:21:07.268Z,11.20
2023-05-21T00:23:38.047Z,12.65
2023-05-21T00:26:07.421Z,10.77
2023-05-21T00:28:34.920Z,10.18
2023-05-21T00:31:02.483Z,10.55
2023-05-21T00:33:31.441Z,15.10
2023-05-21T00:35:59.819Z,9.85
2023-05-21T00:38:28.516Z,10.83
2023-05-21T00:40:56.361Z,11.30
2023-05-21T00:43:26.791Z,10.65
2023-05-21T00:45:54.265Z,9.52
2023-05-21T00:48:21.667Z,10.35
2023-05-21T00:50:49.783Z,10.07
2023-05-21T00:53:19.669Z,11.88
2023-05-21T00:55:47.465Z,9.60
2023-05-21T00:58:14.845Z,10.73
2023-05-21T01:00:42.223Z,11.27
2023-05-21T01:03:11.332Z,9.07
2023-05-21T01:05:38.840Z,10.70
2023-05-21T01:08:06.395Z,9.73
2023-05-21T01:10:33.828Z,11.02
2023-05-21T01:13:01.182Z,13.68
2023-05-21T01:15:28.608Z,10.23
2023-05-21T01:17:56.243Z,9.55
2023-05-21T01:20:23.771Z,10.52
2023-05-21T01:22:53.292Z,15.15
2023-05-21T01:25:20.625Z,10.35
2023-05-21T01:27:48.013Z,9.40
2023-05-21T01:30:16.113Z,10.00
2023-05-21T01:32:57.184Z,11.93
2023-05-21T01:35:28.233Z,11.40
2023-05-21T01:38:09.618Z,9.80
2023-05-21T01:40:40.965Z,9.67
2023-05-21T01:43:08.816Z,10.68
2023-05-21T01:45:38.706Z,11.68
2023-05-21T01:48:06.755Z,10.25
2023-05-21T01:50:34.779Z,12.13
2023-05-21T01:53:04.009Z,8.70
2023-05-21T01:55:31.661Z,11.20
2023-05-21T01:58:01.991Z,10.48
2023-05-21T02:00:29.943Z,12.98
2023-05-21T02:02:57.446Z,11.95
2023-05-21T02:05:25.055Z,10.13
2023-05-21T02:07:53.029Z,12.07
2023-05-21T02:10:21.561Z,11.68
2023-05-21T02:12:48.814Z,12.23
2023-05-21T02:15:18.316Z,10.43
2023-05-21T02:17:46.723Z,10.03
2023-05-21T02:20:14.842Z,11.20
2023-05-21T02:22:44.098Z,9.68
2023-05-21T02:25:12.646Z,11.00
2023-05-21T02:27:41.192Z,10.02
2023-05-21T02:30:12.177Z,9.07
2023-05-21T02:32:43.318Z,12.27
2023-05-21T02:35:12.899Z,10.68
2023-05-21T02:37:40.836Z,9.60
2023-05-21T02:40:10.170Z,12.02
2023-05-21T02:42:39.982Z,9.73
2023-05-21T02:45:12.691Z,11.75
2023-05-21T02:47:42.642Z,9.05
2023-05-21T02:50:09.864Z,12.60
2023-05-21T02:52:44.442Z,11.02
2023-05-21T02:55:11.738Z,10.90
2023-05-21T02:57:39.429Z,10.55
2023-05-21T03:00:10.038Z,10.90
2023-05-21T03:02:38.928Z,10.57
2023-05-21T03:05:06.958Z,12.75
2023-05-21T03:07:34.250Z,11.10
2023-05-21T03:10:01.934Z,12.70
2023-05-21T03:12:30.342Z,11.07
2023-05-21T03:15:00.373Z,12.05
2023-05-21T03:17:34.288Z,11.48
2023-05-21T03:20:01.959Z,12.13
2023-05-21T03:22:29.305Z,12.02
2023-05-21T03:24:58.590Z,12.18
2023-05-21T03:27:26.341Z,11.27
2023-05-21T03:29:56.242Z,12.73
2023-05-21T03:32:24.057Z,14.23
2023-05-21T03:34:52.034Z,15.20
2023-05-21T03:37:19.476Z,11.98
2023-05-21T03:39:48.017Z,15.48
2023-05-21T03:42:15.417Z,14.48
2023-05-21T03:44:49.264Z,23.20
2023-05-21T03:47:36.704Z,12.98
2023-05-21T03:50:08.382Z,12.75
2023-05-21T03:52:36.023Z,14.45
2023-05-21T03:55:04.659Z,13.13
2023-05-21T03:57:33.248Z,13.57
2023-05-21T04:00:01.220Z,15.95
2023-05-21T04:02:33.341Z,15.15
2023-05-21T04:05:00.976Z,12.43
2023-05-21T04:07:30.463Z,12.25
2023-05-21T04:09:58.113Z,15.60
2023-05-21T04:12:25.638Z,12.68
2023-05-21T04:14:52.875Z,12.75
2023-05-21T04:17:21.222Z,12.45
2023-05-21T04:19:48.622Z,12.32
2023-05-21T04:22:16.219Z,11.83
2023-05-21T04:24:43.861Z,12.63
2023-05-21T04:27:16.956Z,13.55
2023-05-21T04:29:45.211Z,34.95
2023-05-21T04:32:15.450Z,14.73
2023-05-21T04:34:44.404Z,15.90
2023-05-21T04:37:12.553Z,12.90
2023-05-21T04:39:41.415Z,12.25
2023-05-21T04:42:11.352Z,11.93
2023-05-21T04:44:41.140Z,14.10
2023-05-21T04:47:12.653Z,13.63
2023-05-21T04:49:39.969Z,12.95
2023-05-21T04:52:08.814Z,12.60
2023-05-21T04:54:37.102Z,12.38
2023-05-21T04:57:04.447Z,11.48
2023-05-21T04:59:35.536Z,12.90
2023-05-21T05:02:03.203Z,14.68
2023-05-21T05:04:30.435Z,13.70
2023-05-21T05:06:57.800Z,12.57
2023-05-21T05:09:27.103Z,11.55
2023-05-21T05:11:55.405Z,12.47
2023-05-21T05:14:29.640Z,15.38
2023-05-21T05:17:01.002Z,19.75
2023-05-21T05:19:29.070Z,13.18
2023-05-21T05:21:56.739Z,13.52
2023-05-21T05:24:28.040Z,12.40
2023-05-21T05:26:55.423Z,13.70
2023-05-21T05:29:22.972Z,11.88
2023-05-21T05:31:52.603Z,12.90
2023-05-21T05:34:21.954Z,11.82
2023-05-21T05:36:49.662Z,10.87
2023-05-21T05:39:18.911Z,12.65
2023-05-21T05:41:48.304Z,10.80
2023-05-21T05:44:17.090Z,12.23
2023-05-21T05:46:46.289Z,13.07
2023-05-21T05:49:17.184Z,11.20
2023-05-21T05:51:45.194Z,13.63
2023-05-21T05:54:12.576Z,11.18
2023-05-21T05:56:41.260Z,11.50
2023-05-21T05:59:09.168Z,11.52
2023-05-21T06:01:38.766Z,11.10
2023-05-21T06:04:06.779Z,10.50
2023-05-21T06:06:35.083Z,12.20
2023-05-21T06:09:03.460Z,11.38
2023-05-21T06:11:38.087Z,11.60
2023-05-21T06:14:05.501Z,12.00
2023-05-21T06:16:34.254Z,10.35
2023-05-21T06:19:03.834Z,9.82
2023-05-21T06:21:33.601Z,9.23
2023-05-21T06:24:02.410Z,16.50
2023-05-21T06:26:33.194Z,13.20
2023-05-21T06:29:01.094Z,9.13
2023-05-21T06:31:33.543Z,10.05
2023-05-21T06:34:01.674Z,11.98
2023-05-21T06:36:32.393Z,10.43
2023-05-21T06:39:00.025Z,9.90
2023-05-21T06:41:28.654Z,11.23
2023-05-21T06:44:02.421Z,11.00
2023-05-21T06:46:49.937Z,12.90
2023-05-21T06:49:20.809Z,12.00
2023-05-21T06:51:49.554Z,13.57
2023-05-21T06:54:19.197Z,15.40
2023-05-21T06:56:46.586Z,17.05
2023-05-21T06:59:16.944Z,12.82
2023-05-21T07:01:44.852Z,14.00
2023-05-21T07:04:13.178Z,17.73
2023-05-21T07:06:42.856Z,18.83
2023-05-21T07:09:10.961Z,16.52
2023-05-21T07:11:39.410Z,16.35
2023-05-21T07:14:09.314Z,16.27
2023-05-21T07:16:37.672Z,18.90
2023-05-21T07:19:05.243Z,19.75
2023-05-21T07:21:34.871Z,20.52
2023-05-21T07:24:02.716Z,18.50
2023-05-21T07:26:32.069Z,17.92
2023-05-21T07:28:59.461Z,16.17
2023-05-21T07:31:27.506Z,22.98
2023-05-21T07:33:55.592Z,17.70
2023-05-21T07:36:27.636Z,16.23
2023-05-21T07:38:55.475Z,13.98
2023-05-21T07:41:23.118Z,13.77
2023-05-21T07:43:51.295Z,18.60
2023-05-21T07:46:19.199Z,14.15
2023-05-21T07:48:50.284Z,15.95
2023-05-21T07:51:19.656Z,15.68
2023-05-21T07:53:47.066Z,16.03
2023-05-21T07:56:16.580Z,15.57
2023-05-21T07:58:46.154Z,15.20
2023-05-21T08:01:15.480Z,16.33
2023-05-21T08:03:43.101Z,15.32
2023-05-21T08:06:13.064Z,12.40
2023-05-21T08:08:41.249Z,14.25
2023-05-21T08:11:08.706Z,15.32
2023-05-21T08:13:42.024Z,16.88
2023-05-21T08:16:14.562Z,12.80
2023-05-21T08:18:42.859Z,14.57
2023-05-21T08:21:13.284Z,11.82
2023-05-21T08:23:40.967Z,16.27
2023-05-21T08:26:08.935Z,16.27
2023-05-21T08:28:39.451Z,17.58
2023-05-21T08:31:07.283Z,17.77
2023-05-21T08:33:50.163Z,22.05
2023-05-21T08:36:28.707Z,18.85
2023-05-21T08:39:04.767Z,28.90
2023-05-21T08:41:36.472Z,23.40
2023-05-21T08:44:05.712Z,19.93
2023-05-21T08:46:35.688Z,19.65
2023-05-21T08:49:03.523Z,20.75
2023-05-21T08:51:31.501Z,15.65
2023-05-21T08:54:00.449Z,21.63
2023-05-21T08:56:28.239Z,17.47
2023-05-21T08:58:59.537Z,21.05
2023-05-21T09:01:29.897Z,21.25
2023-05-21T09:04:19.762Z,34.35
2023-05-21T09:06:50.590Z,30.35
2023-05-21T09:09:34.755Z,21.33
2023-05-21T09:12:03.214Z,21.38
2023-05-21T09:14:31.919Z,20.85
2023-05-21T09:17:17.441Z,21.98
2023-05-21T09:20:15.406Z,21.05
2023-05-21T09:22:54.032Z,19.73
2023-05-21T09:25:22.552Z,22.80
2023-05-21T09:27:50.242Z,21.00
2023-05-21T09:30:25.997Z,20.10
2023-05-21T09:32:59.109Z,23.55
2023-05-21T09:35:27.982Z,20.73
2023-05-21T09:37:58.620Z,20.52
2023-05-21T09:40:27.422Z,18.77
2023-05-21T09:42:56.876Z,20.95
2023-05-21T09:45:28.752Z,23.05
2023-05-21T09:47:58.795Z,24.20
2023-05-21T09:50:30.142Z,20.42
2023-05-21T09:52:58.890Z,22.67
2023-05-21T09:55:27.312Z,22.63
2023-05-21T09:57:54.935Z,25.95
2023-05-21T10:00:28.250Z,24.80
2023-05-21T10:02:57.866Z,26.23
2023-05-21T10:05:31.561Z,23.25
2023-05-21T10:08:01.870Z,22.75
2023-05-21T10:10:30.513Z,28.70
2023-05-21T10:13:10.022Z,21.43
2023-05-21T10:15:39.740Z,20.45
2023-05-21T10:18:07.600Z,21.45
2023-05-21T10:20:35.358Z,21.58
2023-05-21T10:23:07.104Z,20.83
2023-05-21T10:25:35.361Z,23.07
2023-05-21T10:28:04.178Z,24.90
2023-05-21T10:30:33.552Z,22.48
2023-05-21T10:33:03.603Z,22.95
2023-05-21T10:35:33.998Z,21.08
2023-05-21T10:38:05.475Z,28.53
2023-05-21T10:40:33.026Z,25.05
2023-05-21T10:43:22.260Z,21.52
2023-05-21T10:46:28.531Z,25.50
2023-05-21T10:49:16.963Z,22.17
2023-05-21T10:52:02.871Z,29.40
2023-05-21T10:54:32.794Z,25.92
2023-05-21T10:57:13.708Z,22.17
2023-05-21T10:59:44.206Z,21.88
2023-05-21T11:02:13.257Z,20.10
2023-05-21T11:04:43.187Z,18.77
2023-05-21T11:07:11.326Z,17.45
2023-05-21T11:09:38.706Z,15.55
2023-05-21T11:12:10.493Z,15.45
2023-05-21T11:14:39.969Z,18.52
2023-05-21T11:17:12.566Z,23.13
2023-05-21T11:19:45.517Z,21.05
2023-05-21T11:22:27.182Z,18.95
2023-05-21T11:24:55.277Z,16.85
2023-05-21T11:27:34.196Z,16.70
2023-05-21T11:30:04.490Z,15.07
2023-05-21T11:32:31.959Z,15.88
2023-05-21T11:35:02.704Z,11.57
2023-05-21T11:37:35.378Z,12.00
2023-05-21T11:40:30.939Z,12.75
2023-05-21T11:43:18.915Z,12.10
2023-05-21T11:45:47.723Z,13.00
2023-05-21T11:48:15.178Z,11.48
2023-05-21T11:50:45.198Z,10.55
2023-05-21T11:53:13.317Z,10.65
2023-05-21T11:55:43.890Z,11.27
2023-05-21T11:58:13.957Z,12.82
2023-05-21T12:00:41.524Z,9.68
2023-05-21T12:03:13.265Z,9.95
2023-05-21T12:05:50.376Z,8.90
2023-05-21T12:08:29.238Z,15.00
2023-05-21T12:11:00.458Z,9.88
2023-05-21T12:13:28.661Z,11.73
2023-05-21T12:16:08.461Z,12.38
2023-05-21T12:18:37.251Z,9.63
2023-05-21T12:21:12.609Z,11.17
2023-05-21T12:24:04.728Z,10.05
2023-05-21T12:26:37.630Z,14.32
2023-05-21T12:29:12.135Z,11.05
2023-05-21T12:32:03.115Z,9.82
2023-05-21T12:34:46.676Z,10.27
2023-05-21T12:37:29.806Z,11.95
2023-05-21T12:40:11.445Z,9.90
2023-05-21T12:42:42.110Z,8.57
2023-05-21T12:45:12.861Z,10.98
2023-05-21T12:47:40.435Z,11.07
2023-05-21T12:50:14.322Z,11.23
2023-05-21T12:52:44.448Z,14.23
2023-05-21T12:55:13.786Z,11.35
2023-05-21T12:57:41.849Z,12.55
2023-05-21T13:00:10.777Z,13.43
2023-05-21T13:02:48.859Z,9.38
2023-05-21T13:05:19.902Z,11.38
2023-05-21T13:07:47.895Z,11.95
2023-05-21T13:10:17.043Z,9.02
2023-05-21T13:12:45.914Z,10.13
2023-05-21T13:15:13.163Z,13.98
2023-05-21T13:17:43.269Z,10.75
2023-05-21T13:20:15.473Z,11.63
2023-05-21T13:22:44.148Z,10.60
2023-05-21T13:25:12.305Z,8.37
2023-05-21T13:27:44.094Z,13.52
2023-05-21T13:30:12.193Z,11.18
2023-05-21T13:32:43.663Z,12.10
2023-05-21T13:35:12.539Z,10.50
2023-05-21T13:37:41.356Z,12.10
2023-05-21T13:40:15.710Z,9.85
2023-05-21T13:42:45.736Z,11.00
2023-05-21T13:45:21.414Z,12.35
2023-05-21T13:47:49.384Z,28.75
2023-05-21T13:50:17.868Z,11.67
2023-05-21T13:52:45.463Z,14.00
2023-05-21T13:55:13.217Z,16.85
2023-05-21T13:57:41.639Z,14.93
2023-05-21T14:00:18.269Z,19.40
2023-05-21T14:02:46.711Z,13.47
2023-05-21T14:05:14.230Z,13.35
2023-05-21T14:07:43.242Z,14.10
2023-05-21T14:10:11.404Z,13.43
2023-05-21T14:12:46.367Z,14.50
2023-05-21T14:15:18.022Z,12.17
2023-05-21T14:17:48.466Z,13.90
2023-05-21T14:20:15.960Z,15.50
2023-05-21T14:22:43.276Z,13.65
2023-05-21T14:25:11.394Z,15.23
2023-05-21T14:27:48.934Z,16.90
2023-05-21T14:30:21.316Z,14.15
2023-05-21T14:32:49.659Z,12.63
2023-05-21T14:35:21.460Z,12.45
2023-05-21T14:37:54.713Z,16.00
2023-05-21T14:40:26.327Z,14.93
2023-05-21T14:42:55.950Z,18.27
2023-05-21T14:45:36.547Z,17.80
2023-05-21T14:48:08.799Z,19.63
2023-05-21T14:50:40.018Z,16.50
2023-05-21T14:53:12.704Z,15.43
2023-05-21T14:55:44.223Z,14.93
2023-05-21T14:58:20.075Z,16.48
2023-05-21T15:00:47.716Z,16.13
2023-05-21T15:03:15.621Z,17.40
2023-05-21T15:05:44.367Z,14.77
2023-05-21T15:08:13.976Z,14.23
2023-05-21T15:10:42.364Z,14.80
2023-05-21T15:13:10.794Z,16.27
2023-05-21T15:15:41.175Z,14.40
2023-05-21T15:18:09.738Z,18.50
2023-05-21T15:20:38.277Z,14.73
2023-05-21T15:23:16.046Z,17.27
2023-05-21T15:25:44.233Z,14.85
2023-05-21T15:28:12.600Z,15.93
2023-05-21T15:30:40.167Z,14.77
2023-05-21T15:33:07.445Z,16.55
2023-05-21T15:35:38.240Z,67.00
2023-05-21T15:38:06.991Z,24.45
2023-05-21T15:40:34.399Z,12.88
2023-05-21T15:43:06.703Z,13.33
2023-05-21T15:45:43.050Z,13.98
2023-05-21T15:48:12.637Z,17.50
2023-05-21T15:50:40.395Z,14.43
2023-05-21T15:53:09.463Z,16.05
2023-05-21T15:55:40.285Z,14.63
2023-05-21T15:58:07.922Z,15.55
2023-05-21T16:00:36.532Z,14.75
2023-05-21T16:03:04.202Z,15.70
2023-05-21T16:05:31.458Z,16.70
2023-05-21T16:08:00.765Z,16.33
2023-05-21T16:10:29.223Z,14.48
2023-05-21T16:12:56.625Z,13.77
2023-05-21T16:15:24.001Z,13.38
2023-05-21T16:17:53.359Z,16.55
2023-05-21T16:20:22.083Z,20.60
2023-05-21T16:22:51.477Z,13.70
2023-05-21T16:25:18.807Z,15.52
2023-05-21T16:27:47.712Z,15.60
2023-05-21T16:30:21.294Z,14.93
2023-05-21T16:32:48.457Z,16.27
2023-05-21T16:35:18.103Z,13.52
2023-05-21T16:37:47.235Z,16.27
2023-05-21T16:40:15.537Z,14.63
2023-05-21T16:42:44.929Z,12.75
2023-05-21T16:45:19.791Z,13.87
2023-05-21T16:47:50.748Z,13.73
2023-05-21T16:50:19.581Z,18.70
2023-05-21T16:52:47.895Z,11.27
2023-05-21T16:55:16.193Z,15.18
2023-05-21T16:57:43.641Z,14.80
2023-05-21T17:00:11.316Z,14.02
2023-05-21T17:02:39.081Z,14.05
2023-05-21T17:05:07.832Z,18.05
2023-05-21T17:07:36.747Z,13.27
2023-05-21T17:10:04.182Z,12.97
2023-05-21T17:12:32.547Z,19.02
2023-05-21T17:15:01.433Z,12.68
2023-05-21T17:17:29.766Z,12.23
2023-05-21T17:20:00.503Z,14.27
2023-05-21T17:22:28.024Z,14.52
2023-05-21T17:24:56.454Z,13.20
2023-05-21T17:27:24.068Z,13.65
2023-05-21T17:29:51.575Z,17.50
2023-05-21T17:32:21.576Z,14.63
2023-05-21T17:34:48.863Z,12.60
2023-05-21T17:37:17.009Z,13.45
2023-05-21T17:39:46.122Z,12.55
2023-05-21T17:42:14.426Z,13.77
2023-05-21T17:44:41.696Z,12.30
2023-05-21T17:47:09.021Z,15.15
2023-05-21T17:49:36.399Z,15.80
2023-05-21T17:52:04.887Z,14.27
2023-05-21T17:54:32.061Z,14.88
2023-05-21T17:56:59.304Z,16.50
2023-05-21T17:59:26.845Z,15.82
2023-05-21T18:01:54.283Z,18.88
2023-05-21T18:04:21.672Z,16.63
2023-05-21T18:06:48.993Z,13.02
2023-05-21T18:09:16.336Z,14.40
2023-05-21T18:11:44.985Z,13.13
2023-05-21T18:14:14.495Z,15.45
2023-05-21T18:16:42.052Z,16.23
2023-05-21T18:19:09.260Z,16.60
2023-05-21T18:21:36.582Z,21.53
2023-05-21T18:24:04.155Z,19.27
2023-05-21T18:26:31.455Z,13.57
2023-05-21T18:29:06.622Z,18.58
2023-05-21T18:31:34.147Z,18.65
2023-05-21T18:34:02.146Z,22.50
2023-05-21T18:36:30.556Z,24.77
2023-05-21T18:38:57.992Z,19.77
2023-05-21T18:41:28.155Z,19.38
2023-05-21T18:43:55.532Z,20.63
2023-05-21T18:46:22.870Z,20.10
2023-05-21T18:48:50.260Z,14.70
2023-05-21T18:51:17.756Z,23.63
2023-05-21T18:53:45.017Z,18.33
2023-05-21T18:56:12.310Z,18.50
2023-05-21T18:58:39.537Z,21.27
2023-05-21T19:01:08.261Z,18.20
2023-05-21T19:03:37.003Z,13.50
2023-05-21T19:06:05.062Z,16.85
2023-05-21T19:08:33.473Z,16.15
2023-05-21T19:11:04.341Z,14.20
2023-05-21T19:13:31.767Z,13.05
2023-05-21T19:15:59.001Z,12.48
2023-05-21T19:18:31.938Z,12.02
2023-05-21T19:21:00.517Z,11.68
2023-05-21T19:23:28.260Z,11.90
2023-05-21T19:25:56.869Z,11.23
2023-05-21T19:28:26.206Z,10.40
2023-05-21T19:30:53.485Z,11.68
2023-05-21T19:33:20.916Z,13.13
2023-05-21T19:35:50.486Z,9.30
2023-05-21T19:38:19.042Z,9.50
2023-05-21T19:40:46.344Z,9.73
2023-05-21T19:43:13.631Z,9.23
2023-05-21T19:45:43.014Z,12.63
2023-05-21T19:48:10.398Z,11.13
2023-05-21T19:50:37.900Z,10.25
2023-05-21T19:53:05.334Z,12.48
2023-05-21T19:55:35.675Z,10.23
2023-05-21T19:58:03.262Z,9.45
2023-05-21T20:00:30.619Z,11.20
2023-05-21T20:02:58.830Z,10.70
2023-05-21T20:05:26.220Z,14.05
2023-05-21T20:07:53.500Z,10.88
2023-05-21T20:10:21.135Z,14.15
2023-05-21T20:12:48.253Z,9.30
2023-05-21T20:15:15.750Z,12.27
2023-05-21T20:17:44.689Z,10.77
2023-05-21T20:20:14.516Z,13.80
2023-05-21T20:22:41.823Z,10.20
2023-05-21T20:25:09.488Z,12.80
2023-05-21T20:27:39.316Z,9.77
2023-05-21T20:30:07.917Z,11.32
2023-05-21T20:32:35.371Z,9.27
2023-05-21T20:35:03.981Z,9.57
2023-05-21T20:37:36.704Z,13.50
2023-05-21T20:40:07.431Z,10.57
2023-05-21T20:42:35.632Z,11.88
2023-05-21T20:45:03.724Z,12.15
2023-05-21T20:47:31.156Z,11.00
2023-05-21T20:49:59.552Z,11.33
2023-05-21T20:52:27.177Z,11.43
2023-05-21T20:55:00.809Z,13.30
2023-05-21T20:57:30.684Z,10.65
2023-05-21T20:59:57.892Z,12.88
2023-05-21T21:02:25.104Z,9.73
2023-05-21T21:04:55.300Z,12.25
2023-05-21T21:07:22.694Z,10.63
2023-05-21T21:09:49.865Z,9.77
2023-05-21T21:14:48.652Z,10.63
2023-05-21T21:17:16.015Z,11.75
2023-05-21T21:19:44.452Z,12.32
2023-05-21T21:22:11.653Z,11.40
2023-05-21T21:24:39.629Z,11.43
2023-05-21T21:27:07.140Z,12.77
2023-05-21T21:29:34.450Z,10.88
2023-05-21T21:32:01.879Z,12.48
2023-05-21T21:34:31.199Z,12.48
2023-05-21T21:36:59.616Z,14.27
2023-05-21T21:39:27.952Z,12.60
2023-05-21T21:41:55.266Z,13.00
2023-05-21T21:44:23.615Z,10.90
2023-05-21T21:46:51.077Z,13.00
2023-05-21T21:49:18.519Z,11.80
2023-05-21T21:51:46.389Z,12.77
2023-05-21T21:54:13.887Z,10.93
2023-05-21T21:56:41.794Z,9.70
2023-05-21T21:59:09.218Z,11.02
2023-05-21T22:01:37.980Z,11.80
2023-05-21T22:04:05.830Z,10.53
2023-05-21T22:06:33.651Z,10.98
2023-05-21T22:09:01.773Z,12.30
2023-05-21T22:11:30.629Z,10.18
2023-05-21T22:13:57.984Z,10.23
2023-05-21T22:16:25.371Z,12.20
2023-05-21T22:18:54.816Z,14.00
2023-05-21T22:21:22.103Z,9.85
2023-05-21T22:23:49.457Z,12.00
2023-05-21T22:26:16.845Z,13.00
2023-05-21T22:28:45.216Z,9.10
2023-05-21T22:31:12.552Z,11.15
2023-05-21T22:33:39.850Z,11.63
2023-05-21T22:36:07.403Z,13.57
2023-05-21T22:38:38.059Z,9.63
2023-05-21T22:41:05.499Z,9.67
2023-05-21T22:43:35.199Z,11.57
2023-05-21T22:46:04.568Z,12.65
2023-05-21T22:48:37.454Z,12.15
2023-05-21T22:51:04.926Z,9.32
2023-05-21T22:53:33.915Z,10.57
2023-05-21T22:56:01.466Z,11.18
2023-05-21T22:58:29.674Z,10.20
2023-05-21T23:00:57.849Z,11.10
2023-05-21T23:03:25.300Z,11.40
2023-05-21T23:05:52.483Z,12.20
2023-05-21T23:08:19.994Z,10.35
2023-05-21T23:10:47.299Z,14.20
2023-05-21T23:13:15.063Z,10.32
2023-05-21T23:15:44.107Z,12.35
2023-05-21T23:18:16.016Z,12.03
2023-05-21T23:20:44.085Z,11.18
2023-05-21T23:23:11.682Z,11.23
2023-05-21T23:25:39.020Z,11.70
2023-05-21T23:28:07.344Z,13.48
2023-05-21T23:30:34.587Z,12.80
2023-05-21T23:33:01.805Z,12.63
2023-05-21T23:35:29.439Z,13.98
2023-05-21T23:37:56.784Z,14.80
2023-05-21T23:40:24.114Z,10.95
2023-05-21T23:42:51.436Z,12.53
2023-05-21T23:45:18.879Z,15.00
2023-05-21T23:47:46.255Z,13.85
2023-05-21T23:50:13.449Z,13.05
2023-05-21T23:52:41.806Z,15.13
2023-05-21T23:55:11.922Z,18.33
2023-05-21T23:57:39.210Z,15.93
